Time;durP1;ratioP1;P1;durP2;ratioP2;P2;SDS_P1;SDS_P2;PMS_P1;PMS_P2;Temp;Humidity;BMP_temperature;BMP_pressure;BME280_temperature;BME280_humidity;BME280_pressure;Samples;Min_cycle;Max_cycle;Signal;HPM_P1;HPM_P2
2021/12/25 00:03:51;;;;;;;17.40;15.60;;;8.20;99.90;;;;;;10350701;28;20216;-76
2021/12/25 00:08:52;;;;;;;17.07;15.20;;;8.30;99.90;;;;;;10345710;28;20714;-74
2021/12/25 00:13:52;;;;;;;16.67;14.93;;;8.30;99.90;;;;;;10355027;28;20226;-74
2021/12/25 00:18:53;;;;;;;17.83;15.30;;;8.20;99.90;;;;;;10352626;28;20218;-74
2021/12/25 00:23:54;;;;;;;17.93;15.67;;;8.20;99.90;;;;;;10361550;28;20279;-74
2021/12/25 00:29:03;;;;;;;16.73;14.93;;;8.20;99.90;;;;;;10342381;28;20215;-74
2021/12/25 00:34:05;;;;;;;15.97;14.03;;;8.10;99.90;;;;;;10345303;28;20624;-74
2021/12/25 00:39:05;;;;;;;16.43;14.63;;;8.10;99.90;;;;;;10352536;28;20710;-75
2021/12/25 00:44:06;;;;;;;15.47;13.83;;;8.10;99.90;;;;;;10346733;28;20224;-75
2021/12/25 00:49:09;;;;;;;16.60;14.80;;;8.10;99.90;;;;;;10356123;28;20218;-75
2021/12/25 00:54:11;;;;;;;16.10;14.40;;;8.10;99.90;;;;;;10344524;28;20213;-74
2021/12/25 00:59:12;;;;;;;17.20;15.13;;;8.10;99.90;;;;;;10346307;28;20228;-75
2021/12/25 01:04:15;;;;;;;16.20;14.17;;;8.10;99.90;;;;;;10349190;28;20219;-75
2021/12/25 01:09:16;;;;;;;16.13;14.43;;;8.10;99.90;;;;;;10349060;28;20223;-74
2021/12/25 01:14:35;;;;;;;22.40;17.80;;;8.00;99.90;;;;;;10343187;28;20223;-75
2021/12/25 01:50:54;;;;;;;22.17;17.23;;;8.10;99.90;;;;;;10357954;28;20312;-75
2021/12/25 01:55:57;;;;;;;23.43;16.57;;;8.10;99.90;;;;;;10354799;28;20954;-74
2021/12/25 02:00:59;;;;;;;21.27;17.10;;;8.10;99.90;;;;;;10355689;28;20223;-74
2021/12/25 02:06:00;;;;;;;22.17;18.13;;;8.10;99.90;;;;;;10351200;28;20263;-75
2021/12/25 02:11:02;;;;;;;19.13;16.33;;;8.10;99.90;;;;;;10355238;28;20231;-74
2021/12/25 02:16:10;;;;;;;18.33;15.40;;;8.20;99.90;;;;;;10355742;28;20297;-73
2021/12/25 02:21:18;;;;;;;16.00;14.30;;;8.20;99.90;;;;;;10350215;28;20307;-73
2021/12/25 02:26:20;;;;;;;15.80;13.90;;;8.20;99.90;;;;;;10352892;28;20220;-74
2021/12/25 02:31:21;;;;;;;15.50;13.87;;;8.20;99.90;;;;;;10352288;28;20260;-74
2021/12/25 02:36:22;;;;;;;14.97;13.37;;;8.20;99.90;;;;;;10352905;28;20281;-74
2021/12/25 02:41:23;;;;;;;16.33;14.57;;;8.10;99.90;;;;;;10347455;28;20280;-74
2021/12/25 02:46:24;;;;;;;15.50;13.77;;;8.10;99.90;;;;;;10352489;28;20236;-74
2021/12/25 02:51:26;;;;;;;16.23;14.53;;;8.10;99.90;;;;;;10346987;28;20303;-75
2021/12/25 02:56:26;;;;;;;14.63;13.13;;;8.10;99.90;;;;;;10358919;28;20636;-75
2021/12/25 03:01:27;;;;;;;16.40;13.43;;;8.10;99.90;;;;;;10346304;28;20232;-74
2021/12/25 03:06:27;;;;;;;16.47;14.40;;;8.10;99.90;;;;;;10345251;28;20588;-76
2021/12/25 03:11:28;;;;;;;16.63;13.70;;;8.10;99.90;;;;;;10366794;28;20272;-75
2021/12/25 03:16:29;;;;;;;16.07;14.27;;;8.20;99.90;;;;;;10352147;28;20226;-74
2021/12/25 03:21:29;;;;;;;13.80;12.17;;;8.20;99.90;;;;;;10345242;28;20217;-74
2021/12/25 03:26:30;;;;;;;15.07;13.27;;;8.20;99.90;;;;;;10358815;28;20307;-75
2021/12/25 03:31:31;;;;;;;14.53;12.40;;;8.20;99.90;;;;;;10356252;28;20231;-73
2021/12/25 03:36:32;;;;;;;14.87;12.97;;;8.20;99.90;;;;;;10344486;28;20224;-75
2021/12/25 03:41:33;;;;;;;12.77;11.33;;;8.20;99.90;;;;;;10358288;28;20655;-74
2021/12/25 03:46:34;;;;;;;12.67;11.10;;;8.20;99.90;;;;;;10350136;28;20232;-74
2021/12/25 04:02:20;;;;;;;12.57;11.20;;;8.20;99.90;;;;;;10352155;28;20242;-74
2021/12/25 04:07:59;;;;;;;12.03;10.73;;;8.20;99.90;;;;;;10342672;28;20248;-74
2021/12/25 04:12:41;;;;;;;14.00;12.00;;;8.30;99.90;;;;;;10344236;28;20248;-74
2021/12/25 04:17:42;;;;;;;12.80;11.37;;;8.30;99.90;;;;;;10350552;28;20440;-74
2021/12/25 04:22:52;;;;;;;12.80;10.97;;;8.30;99.90;;;;;;10344841;28;20285;-74
2021/12/25 04:27:54;;;;;;;12.50;11.20;;;8.30;99.90;;;;;;10349231;28;20221;-73
2021/12/25 04:33:28;;;;;;;12.13;10.47;;;8.30;99.90;;;;;;10348370;28;20335;-74
2021/12/25 05:04:55;;;;;;;15.43;12.60;;;8.30;99.90;;;;;;10344773;28;20215;-74
2021/12/25 05:09:58;;;;;;;14.73;12.20;;;8.20;99.90;;;;;;10347812;28;20227;-74
2021/12/25 05:14:59;;;;;;;15.47;13.80;;;8.20;99.90;;;;;;10347174;28;20220;-74
2021/12/25 05:20:00;;;;;;;15.80;14.00;;;8.10;99.90;;;;;;10349959;28;20878;-74
2021/12/25 05:25:01;;;;;;;17.87;14.73;;;8.10;99.90;;;;;;10364541;28;20210;-74
2021/12/25 05:30:03;;;;;;;15.33;13.40;;;8.10;99.90;;;;;;10354251;28;20273;-73
2021/12/25 05:35:04;;;;;;;13.37;11.90;;;8.10;99.90;;;;;;10351790;28;20687;-75
2021/12/25 05:40:05;;;;;;;14.20;12.67;;;8.20;99.90;;;;;;10353294;28;20255;-73
2021/12/25 05:45:10;;;;;;;13.37;12.07;;;8.20;99.90;;;;;;10360717;28;20294;-74
2021/12/25 05:50:11;;;;;;;13.77;12.10;;;8.20;99.90;;;;;;10348792;28;20739;-73
2021/12/25 05:55:11;;;;;;;14.50;13.00;;;8.20;99.90;;;;;;10360912;28;20188;-74
2021/12/25 06:00:12;;;;;;;15.83;14.13;;;8.10;99.90;;;;;;10352315;28;20271;-73
2021/12/25 06:05:14;;;;;;;14.80;13.23;;;8.10;99.90;;;;;;10369067;28;20203;-73
2021/12/25 06:10:15;;;;;;;11.03;9.80;;;7.90;99.90;;;;;;10364586;28;20206;-74
2021/12/25 06:15:20;;;;;;;8.93;7.40;;;7.80;99.90;;;;;;10352946;28;20179;-74
2021/12/25 06:20:20;;;;;;;8.53;7.20;;;7.80;99.90;;;;;;10349533;28;20175;-74
2021/12/25 06:25:24;;;;;;;6.27;5.33;;;7.80;99.90;;;;;;10352041;28;20182;-74
2021/12/25 06:30:25;;;;;;;5.33;4.83;;;7.80;99.90;;;;;;10314181;28;20563;-74
2021/12/25 06:35:26;;;;;;;7.40;6.60;;;7.70;99.90;;;;;;10311482;28;20665;-75
2021/12/25 06:40:26;;;;;;;7.63;6.27;;;7.70;99.90;;;;;;10355381;28;20298;-75
2021/12/25 06:45:27;;;;;;;6.43;5.83;;;7.60;99.90;;;;;;10353987;28;20222;-75
2021/12/25 06:50:30;;;;;;;7.47;6.73;;;7.50;99.90;;;;;;10347821;28;20233;-74
2021/12/25 06:55:31;;;;;;;8.30;7.43;;;7.40;99.90;;;;;;10354678;28;20220;-74
2021/12/25 07:00:32;;;;;;;9.43;8.43;;;7.20;99.90;;;;;;10354625;28;20335;-74
2021/12/25 07:05:32;;;;;;;11.37;8.77;;;7.20;99.90;;;;;;10353532;28;20253;-73
2021/12/25 07:10:33;;;;;;;10.30;8.90;;;7.10;99.90;;;;;;10353459;28;20225;-74
2021/12/25 07:15:36;;;;;;;10.13;9.03;;;6.90;99.90;;;;;;10346074;28;20213;-75
2021/12/25 07:20:37;;;;;;;11.80;9.50;;;6.80;99.90;;;;;;10358847;28;20308;-74
2021/12/25 07:25:38;;;;;;;11.07;9.17;;;6.70;99.90;;;;;;10353855;28;20709;-74
2021/12/25 07:30:38;;;;;;;10.37;9.20;;;6.60;99.90;;;;;;10353034;28;20225;-74
2021/12/25 07:35:39;;;;;;;12.17;8.57;;;6.40;99.90;;;;;;10346874;28;20206;-75
2021/12/25 07:40:39;;;;;;;10.07;8.20;;;6.40;99.90;;;;;;10361478;28;20299;-75
2021/12/25 07:45:41;;;;;;;9.27;7.70;;;6.30;99.90;;;;;;10347944;28;20721;-75
2021/12/25 07:50:44;;;;;;;8.57;7.60;;;6.30;99.90;;;;;;10360796;28;20839;-74
2021/12/25 07:55:50;;;;;;;8.40;7.50;;;6.20;99.90;;;;;;10352219;28;20225;-74
2021/12/25 08:00:51;;;;;;;7.93;6.90;;;6.10;99.90;;;;;;10348119;28;20218;-74
2021/12/25 08:05:54;;;;;;;7.57;6.73;;;6.10;99.90;;;;;;10350849;28;20213;-74
2021/12/25 08:10:56;;;;;;;7.73;6.93;;;6.00;99.90;;;;;;10356225;28;20315;-74
2021/12/25 08:15:56;;;;;;;7.27;6.37;;;6.10;99.90;;;;;;10352349;28;20220;-74
2021/12/25 08:20:57;;;;;;;7.10;6.00;;;6.00;99.90;;;;;;10347944;28;20281;-74
2021/12/25 08:25:58;;;;;;;6.53;5.53;;;6.00;99.90;;;;;;10346002;28;20267;-74
2021/12/25 08:31:00;;;;;;;6.50;5.90;;;5.80;99.90;;;;;;10355429;28;20256;-74
2021/12/25 08:36:00;;;;;;;6.47;5.57;;;5.80;99.90;;;;;;10343945;28;20643;-74
2021/12/25 08:41:01;;;;;;;6.57;5.70;;;5.70;99.90;;;;;;10354994;28;20308;-74
2021/12/25 08:46:11;;;;;;;8.33;6.40;;;5.70;99.90;;;;;;10346520;28;20221;-75
2021/12/25 08:51:12;;;;;;;6.13;5.27;;;5.70;99.90;;;;;;10352272;28;20222;-74
2021/12/25 08:56:13;;;;;;;6.60;5.80;;;5.70;99.90;;;;;;10354897;28;20696;-74
2021/12/25 09:01:15;;;;;;;6.77;5.60;;;5.70;99.90;;;;;;10353376;28;20659;-74
2021/12/25 09:06:15;;;;;;;6.00;5.40;;;5.70;99.90;;;;;;10357888;28;20228;-74
2021/12/25 09:11:17;;;;;;;5.97;5.37;;;5.70;99.90;;;;;;10355354;28;20734;-74
2021/12/25 09:16:18;;;;;;;6.30;5.47;;;5.70;99.90;;;;;;10364231;28;20664;-75
2021/12/25 09:21:19;;;;;;;5.90;5.27;;;5.70;99.90;;;;;;10373735;28;20214;-75
2021/12/25 09:26:20;;;;;;;5.17;4.67;;;5.60;99.90;;;;;;10357304;28;20585;-75
2021/12/25 09:31:21;;;;;;;4.90;4.50;;;5.50;99.90;;;;;;10353038;28;20248;-75
2021/12/25 09:36:22;;;;;;;5.37;4.87;;;5.40;99.90;;;;;;10350166;28;20222;-74
2021/12/25 09:41:25;;;;;;;4.77;4.37;;;5.30;99.90;;;;;;10366084;28;20673;-74
2021/12/25 09:46:26;;;;;;;5.80;5.23;;;5.10;99.90;;;;;;10356135;28;20251;-74
2021/12/25 09:51:27;;;;;;;5.60;4.80;;;5.10;99.90;;;;;;10351404;28;20230;-74
2021/12/25 09:56:29;;;;;;;5.97;5.37;;;5.00;99.90;;;;;;10371531;28;20589;-74
2021/12/25 10:01:47;;;;;;;5.13;4.63;;;4.90;99.90;;;;;;10350843;28;20564;-74
2021/12/25 10:06:48;;;;;;;6.47;5.13;;;4.80;99.90;;;;;;10362898;28;20289;-75
2021/12/25 10:11:57;;;;;;;5.50;4.70;;;4.70;99.90;;;;;;10361048;28;20795;-75
2021/12/25 10:17:22;;;;;;;5.47;4.93;;;4.70;99.90;;;;;;10359994;28;20239;-74
2021/12/25 10:22:23;;;;;;;4.50;4.10;;;4.80;99.90;;;;;;10356730;28;20214;-74
2021/12/25 10:27:23;;;;;;;3.83;3.43;;;4.80;99.90;;;;;;10308927;28;20226;-74
2021/12/25 10:32:25;;;;;;;4.40;3.93;;;4.80;99.90;;;;;;10326167;28;20230;-74
2021/12/25 10:37:26;;;;;;;3.77;3.47;;;4.90;99.90;;;;;;10353058;28;20213;-75
2021/12/25 10:42:33;;;;;;;4.40;4.00;;;4.70;99.90;;;;;;10348186;28;20692;-75
2021/12/25 10:47:37;;;;;;;4.20;3.80;;;4.80;99.90;;;;;;10354094;28;20226;-75
2021/12/25 10:52:45;;;;;;;3.80;3.50;;;4.70;99.90;;;;;;10347420;28;20225;-75
2021/12/25 10:57:56;;;;;;;4.17;3.77;;;4.80;99.90;;;;;;10348681;28;20222;-75
2021/12/25 11:03:07;;;;;;;4.03;3.73;;;4.70;99.90;;;;;;10355670;28;21100;-75
2021/12/25 11:08:14;;;;;;;4.03;3.63;;;4.70;99.90;;;;;;10350218;28;20214;-74
2021/12/25 11:13:28;;;;;;;4.50;3.80;;;4.70;99.90;;;;;;10346823;28;20242;-74
2021/12/25 11:19:05;;;;;;;4.63;4.13;;;4.50;99.90;;;;;;10355969;28;20226;-74
2021/12/25 11:24:17;;;;;;;3.83;3.53;;;4.60;99.90;;;;;;10349558;28;20244;-75
2021/12/25 11:29:21;;;;;;;3.93;3.63;;;4.60;99.90;;;;;;10355829;28;20601;-74
2021/12/25 11:34:26;;;;;;;3.87;3.53;;;4.60;99.90;;;;;;10352438;28;20228;-75
2021/12/25 11:39:28;;;;;;;5.07;3.53;;;4.50;99.90;;;;;;10360010;28;20216;-73
2021/12/25 11:44:36;;;;;;;3.37;3.07;;;4.50;99.90;;;;;;10354072;28;20746;-74
2021/12/25 11:49:54;;;;;;;3.27;2.90;;;4.50;99.90;;;;;;10344813;28;20321;-75
2021/12/25 11:55:17;;;;;;;3.50;3.17;;;4.40;99.90;;;;;;10353020;28;20213;-75
2021/12/25 12:00:44;;;;;;;3.23;2.93;;;4.40;99.90;;;;;;10351878;28;20304;-74
2021/12/25 12:05:48;;;;;;;3.80;3.13;;;4.50;99.90;;;;;;10351600;28;20212;-75
2021/12/25 12:10:59;;;;;;;3.63;3.33;;;4.50;99.90;;;;;;10355380;28;20245;-74
2021/12/25 12:16:03;;;;;;;3.50;3.20;;;4.50;99.90;;;;;;10352234;28;20252;-74
2021/12/25 12:21:10;;;;;;;4.00;3.70;;;4.40;99.90;;;;;;10355463;28;20683;-74
2021/12/25 12:26:13;;;;;;;6.30;3.43;;;4.30;99.90;;;;;;10349098;28;20209;-75
2021/12/25 12:31:44;;;;;;;3.80;3.50;;;4.30;99.90;;;;;;10355733;28;20236;-74
2021/12/25 12:36:44;;;;;;;4.00;3.50;;;4.20;99.90;;;;;;10344958;28;20638;-75
2021/12/25 12:41:53;;;;;;;4.27;3.70;;;4.10;99.90;;;;;;10348777;28;20221;-74
2021/12/25 12:46:58;;;;;;;4.33;3.70;;;4.00;99.90;;;;;;10351298;28;20650;-75
2021/12/25 12:52:38;;;;;;;5.20;4.07;;;3.90;99.90;;;;;;10350134;28;20234;-75
2021/12/25 12:57:42;;;;;;;3.93;3.60;;;3.90;99.90;;;;;;10344093;28;20224;-76
2021/12/25 13:02:49;;;;;;;4.10;3.73;;;3.90;99.90;;;;;;10351982;28;20225;-74
2021/12/25 13:07:53;;;;;;;5.23;3.83;;;3.90;99.90;;;;;;10347229;28;20226;-74
2021/12/25 13:13:18;;;;;;;3.87;3.57;;;3.90;99.90;;;;;;10353032;28;20617;-75
2021/12/25 13:18:30;;;;;;;4.30;3.60;;;3.90;99.90;;;;;;10357325;28;20708;-75
2021/12/25 13:23:54;;;;;;;4.77;3.87;;;3.90;99.90;;;;;;10344876;28;20237;-75
2021/12/25 13:28:54;;;;;;;4.83;3.80;;;3.90;99.90;;;;;;10353524;28;20229;-74
2021/12/25 13:34:07;;;;;;;3.97;3.57;;;3.90;99.90;;;;;;10357588;28;20238;-76
2021/12/25 13:39:12;;;;;;;3.83;3.50;;;3.90;99.90;;;;;;10355243;28;20651;-74
2021/12/25 13:44:29;;;;;;;3.73;3.20;;;3.80;99.90;;;;;;10358314;28;20336;-75
2021/12/25 13:49:36;;;;;;;5.50;3.80;;;3.80;99.90;;;;;;10358082;28;20232;-75
2021/12/25 13:54:44;;;;;;;4.20;3.40;;;3.80;99.90;;;;;;10350018;28;20214;-75
2021/12/25 13:59:52;;;;;;;3.00;2.70;;;3.80;99.90;;;;;;10360842;28;20263;-74
2021/12/25 14:04:53;;;;;;;3.00;2.70;;;3.80;99.90;;;;;;10349080;28;20236;-74
2021/12/25 14:10:03;;;;;;;2.60;2.40;;;3.80;99.90;;;;;;10360463;28;20958;-76
2021/12/25 14:15:05;;;;;;;2.50;2.30;;;3.70;99.90;;;;;;10356787;28;20218;-75
2021/12/25 14:20:17;;;;;;;2.17;1.97;;;3.60;99.90;;;;;;10365250;28;20186;-74
2021/12/25 14:25:24;;;;;;;2.17;2.07;;;3.60;99.90;;;;;;10350513;28;20213;-74
2021/12/25 14:30:25;;;;;;;3.50;2.77;;;3.60;99.90;;;;;;10359634;28;20229;-74
2021/12/25 14:35:25;;;;;;;4.57;2.50;;;3.50;99.90;;;;;;10357269;28;20217;-74
2021/12/25 14:40:33;;;;;;;3.17;2.50;;;3.60;99.90;;;;;;10356895;28;20304;-74
2021/12/25 14:45:55;;;;;;;3.37;2.30;;;3.60;99.90;;;;;;10348195;28;20225;-74
2021/12/25 14:51:10;;;;;;;3.50;2.63;;;3.50;99.90;;;;;;10347738;28;20292;-74
2021/12/25 14:56:29;;;;;;;2.43;2.23;;;3.50;99.90;;;;;;10354437;28;20548;-74
2021/12/25 15:01:37;;;;;;;2.77;2.50;;;3.40;99.90;;;;;;10354348;28;20221;-74
2021/12/25 15:06:51;;;;;;;1.93;1.80;;;3.40;99.90;;;;;;10346887;28;20304;-74
2021/12/25 15:12:05;;;;;;;2.30;1.90;;;3.40;99.90;;;;;;10347235;28;20335;-75
2021/12/25 15:17:13;;;;;;;3.67;1.90;;;3.30;99.90;;;;;;10353774;28;20224;-74
2021/12/25 15:22:22;;;;;;;2.73;2.10;;;3.30;99.90;;;;;;10356663;28;20287;-75
2021/12/25 15:27:32;;;;;;;2.27;1.97;;;3.30;99.90;;;;;;10360049;28;20259;-74
2021/12/25 15:32:38;;;;;;;2.47;2.27;;;3.30;99.90;;;;;;10362323;28;20225;-74
2021/12/25 15:37:47;;;;;;;2.60;2.40;;;3.30;99.90;;;;;;10348732;28;20241;-75
2021/12/25 15:42:48;;;;;;;3.20;2.80;;;3.20;99.90;;;;;;10354175;28;20218;-75
2021/12/25 15:47:50;;;;;;;2.30;2.10;;;3.20;99.90;;;;;;10351606;28;20639;-75
2021/12/25 15:52:51;;;;;;;2.80;2.33;;;3.20;99.90;;;;;;10346584;28;20225;-74
2021/12/25 15:57:56;;;;;;;3.00;2.70;;;3.20;99.90;;;;;;10358838;28;20217;-74
2021/12/25 16:02:57;;;;;;;2.40;2.20;;;3.20;99.90;;;;;;10347189;28;20803;-74
2021/12/25 16:07:57;;;;;;;2.67;2.47;;;3.20;99.90;;;;;;10349393;28;20365;-74
2021/12/25 16:13:00;;;;;;;3.43;2.50;;;3.10;99.90;;;;;;10356246;28;20704;-75
2021/12/25 16:18:01;;;;;;;2.40;2.00;;;3.10;99.90;;;;;;10356021;28;20224;-75
2021/12/25 16:23:02;;;;;;;2.73;2.53;;;3.10;99.90;;;;;;10353480;28;20238;-75
2021/12/25 16:28:03;;;;;;;3.17;2.37;;;3.00;99.90;;;;;;10347476;28;20245;-75
2021/12/25 16:33:06;;;;;;;2.67;2.47;;;3.10;99.90;;;;;;10353731;28;20264;-75
2021/12/25 16:38:08;;;;;;;2.60;2.40;;;3.10;99.90;;;;;;10355256;28;20779;-74
2021/12/25 16:43:09;;;;;;;2.80;2.60;;;3.10;99.90;;;;;;10351743;28;20320;-74
2021/12/25 16:48:09;;;;;;;3.13;2.47;;;3.00;99.90;;;;;;10347552;28;20225;-75
2021/12/25 16:53:10;;;;;;;2.93;2.47;;;3.00;99.90;;;;;;10343971;28;20229;-75
2021/12/25 16:58:11;;;;;;;3.73;2.70;;;3.10;99.90;;;;;;10348498;28;20224;-75
2021/12/25 17:03:13;;;;;;;3.00;2.80;;;3.10;99.90;;;;;;10348000;28;20796;-75
2021/12/25 17:08:14;;;;;;;2.90;2.60;;;3.10;99.90;;;;;;10343473;28;20224;-75
2021/12/25 17:13:15;;;;;;;5.13;3.03;;;3.00;99.90;;;;;;10355686;28;20240;-74
2021/12/25 17:18:17;;;;;;;3.50;2.93;;;3.00;99.90;;;;;;10353338;28;20237;-75
2021/12/25 17:23:20;;;;;;;3.27;2.87;;;3.00;99.90;;;;;;10363581;28;20633;-75
2021/12/25 17:28:20;;;;;;;4.00;3.00;;;3.00;99.90;;;;;;10360986;28;20233;-75
2021/12/25 17:33:24;;;;;;;2.90;2.70;;;3.00;99.90;;;;;;10356327;28;20682;-75
2021/12/25 17:38:28;;;;;;;3.13;2.80;;;3.10;99.90;;;;;;10351281;28;20276;-75
2021/12/25 17:43:29;;;;;;;2.90;2.70;;;3.00;99.90;;;;;;10356435;28;20228;-74
2021/12/25 17:48:31;;;;;;;3.53;2.90;;;3.00;99.90;;;;;;10365827;28;20314;-74
2021/12/25 17:53:32;;;;;;;4.87;3.13;;;3.10;99.90;;;;;;10358382;28;20221;-74
2021/12/25 17:58:36;;;;;;;3.30;3.00;;;3.00;99.90;;;;;;10357186;28;20213;-75
2021/12/25 18:03:36;;;;;;;3.53;3.23;;;3.00;99.90;;;;;;10349053;28;20245;-75
2021/12/25 18:08:37;;;;;;;3.20;2.90;;;2.90;99.90;;;;;;10354358;28;20224;-74
2021/12/25 18:13:37;;;;;;;4.07;3.40;;;3.00;99.90;;;;;;10356928;28;20232;-74
2021/12/25 18:18:38;;;;;;;3.70;3.40;;;2.90;99.90;;;;;;10359771;28;20312;-74
2021/12/25 18:23:39;;;;;;;3.67;3.37;;;3.00;99.90;;;;;;10355546;28;20234;-75
2021/12/25 18:28:45;;;;;;;4.80;3.70;;;3.00;99.90;;;;;;10361544;28;20245;-75
2021/12/25 18:33:45;;;;;;;3.87;3.57;;;2.90;99.90;;;;;;10354530;28;20792;-74
2021/12/25 18:38:46;;;;;;;4.07;3.67;;;2.90;99.90;;;;;;10361361;28;20281;-76
2021/12/25 18:43:47;;;;;;;3.73;3.33;;;2.90;99.90;;;;;;10357063;28;20332;-74
2021/12/25 18:48:48;;;;;;;4.70;3.47;;;2.80;99.90;;;;;;10351270;28;20309;-75
2021/12/25 18:53:50;;;;;;;3.67;3.37;;;2.80;99.90;;;;;;10353933;28;20295;-75
2021/12/25 18:58:51;;;;;;;4.40;4.00;;;2.80;99.90;;;;;;10348247;28;20218;-75
2021/12/25 19:03:52;;;;;;;4.17;3.70;;;2.80;99.90;;;;;;10352563;28;20903;-75
2021/12/25 19:08:53;;;;;;;4.77;4.03;;;2.80;99.90;;;;;;10355187;28;20234;-75
2021/12/25 19:13:53;;;;;;;3.97;3.63;;;2.70;99.90;;;;;;10360048;28;20229;-75
2021/12/25 19:18:55;;;;;;;4.10;3.70;;;2.70;99.90;;;;;;10356344;28;20213;-74
2021/12/25 19:23:55;;;;;;;4.03;3.60;;;2.70;99.90;;;;;;10351556;28;20647;-74
2021/12/25 19:28:56;;;;;;;5.37;4.20;;;2.70;99.90;;;;;;10360529;28;20316;-75
2021/12/25 19:34:00;;;;;;;5.90;3.53;;;2.70;99.90;;;;;;10351271;28;20936;-74
2021/12/25 19:39:00;;;;;;;3.70;3.40;;;2.70;99.90;;;;;;10348026;28;20256;-74
2021/12/25 19:44:01;;;;;;;4.47;3.80;;;2.70;99.90;;;;;;10350413;28;20242;-74
2021/12/25 19:49:05;;;;;;;4.17;3.77;;;2.80;99.90;;;;;;10352664;28;20245;-74
2021/12/25 19:54:06;;;;;;;4.10;3.60;;;2.80;99.90;;;;;;10353187;28;20236;-75
2021/12/25 19:59:07;;;;;;;3.47;3.17;;;2.80;99.90;;;;;;10355690;28;20309;-75
2021/12/25 20:04:08;;;;;;;4.60;3.60;;;2.80;99.90;;;;;;10367409;28;20276;-75
2021/12/25 20:09:11;;;;;;;4.40;3.90;;;2.70;99.90;;;;;;10358573;28;20217;-73
2021/12/25 20:14:11;;;;;;;5.67;4.07;;;2.70;99.90;;;;;;10351844;28;20334;-74
2021/12/25 20:19:13;;;;;;;4.80;3.90;;;2.70;99.90;;;;;;10343683;28;20316;-74
2021/12/25 20:24:13;;;;;;;4.07;3.67;;;2.70;99.90;;;;;;10347424;28;20230;-74
2021/12/25 20:29:16;;;;;;;5.13;4.33;;;2.70;99.90;;;;;;10353940;28;20218;-75
2021/12/25 20:34:17;;;;;;;4.50;3.97;;;2.80;99.90;;;;;;10344022;28;20231;-75
2021/12/25 20:39:18;;;;;;;4.17;3.77;;;2.80;99.90;;;;;;10345583;28;20311;-75
2021/12/25 20:49:22;;;;;;;6.83;4.40;;;2.80;99.90;;;;;;10343794;28;20308;-75
2021/12/25 20:54:22;;;;;;;4.30;3.90;;;2.80;99.90;;;;;;10348612;28;20319;-75
2021/12/25 20:59:23;;;;;;;4.03;3.70;;;2.80;99.90;;;;;;10343945;28;20229;-74
2021/12/25 21:04:24;;;;;;;5.67;4.37;;;2.80;99.90;;;;;;10347961;28;20232;-75
2021/12/25 21:09:25;;;;;;;5.20;4.03;;;2.80;99.90;;;;;;10342701;28;20719;-74
2021/12/25 21:14:27;;;;;;;5.00;4.50;;;2.70;99.90;;;;;;10347320;28;20601;-74
2021/12/25 21:19:28;;;;;;;4.63;4.10;;;2.70;99.90;;;;;;10347716;28;20274;-75
2021/12/25 21:24:28;;;;;;;4.97;4.27;;;2.70;99.90;;;;;;10355112;28;20225;-75
2021/12/25 21:29:29;;;;;;;5.07;4.40;;;2.70;99.90;;;;;;10348241;28;20720;-76
2021/12/25 21:34:30;;;;;;;5.10;4.60;;;2.70;99.90;;;;;;10348458;28;20230;-74
2021/12/25 21:39:33;;;;;;;5.70;4.80;;;2.70;99.90;;;;;;10347513;28;20226;-75
2021/12/25 21:44:34;;;;;;;5.77;4.93;;;2.80;99.90;;;;;;10349404;28;20693;-75
2021/12/25 21:49:35;;;;;;;6.57;5.43;;;2.70;99.90;;;;;;10340567;28;20241;-75
2021/12/25 21:54:37;;;;;;;5.97;5.03;;;2.80;99.90;;;;;;10347690;28;20280;-74
2021/12/25 21:59:38;;;;;;;6.27;5.20;;;2.80;99.90;;;;;;10357154;28;20210;-74
2021/12/25 22:04:45;;;;;;;5.00;4.50;;;2.80;99.90;;;;;;10355374;28;20589;-75
2021/12/25 22:09:50;;;;;;;6.83;5.03;;;2.80;99.90;;;;;;10355263;28;20225;-74
2021/12/25 22:14:53;;;;;;;6.73;5.33;;;2.80;99.90;;;;;;10353771;28;20304;-75
2021/12/25 22:19:56;;;;;;;6.70;5.10;;;2.80;99.90;;;;;;10356225;28;20224;-75
2021/12/25 22:25:01;;;;;;;6.27;4.80;;;2.80;99.90;;;;;;10354885;28;20220;-75
2021/12/25 22:30:04;;;;;;;7.73;5.80;;;2.80;99.90;;;;;;10351398;28;20232;-75
2021/12/25 22:35:08;;;;;;;6.43;5.43;;;2.80;99.90;;;;;;10353709;28;20214;-74
2021/12/25 22:40:13;;;;;;;8.20;5.97;;;2.80;99.90;;;;;;10350240;28;20249;-74
2021/12/25 22:45:17;;;;;;;7.17;5.73;;;2.70;99.90;;;;;;10346164;28;20217;-74
2021/12/25 22:50:18;;;;;;;10.60;6.23;;;2.70;99.90;;;;;;10351359;28;20201;-74
2021/12/25 22:55:23;;;;;;;6.37;5.77;;;2.70;99.90;;;;;;10348396;28;20178;-74
2021/12/25 23:00:32;;;;;;;7.23;5.83;;;2.70;99.90;;;;;;10351949;28;20324;-74
2021/12/25 23:05:35;;;;;;;6.40;5.77;;;2.70;99.90;;;;;;10352548;28;20213;-74
2021/12/25 23:10:37;;;;;;;8.43;6.53;;;2.60;99.90;;;;;;10344858;28;20916;-74
2021/12/25 23:15:39;;;;;;;9.27;5.27;;;2.60;99.90;;;;;;10347212;28;20237;-74
2021/12/25 23:20:42;;;;;;;8.33;6.00;;;2.70;99.90;;;;;;10344369;28;20216;-74
2021/12/25 23:25:42;;;;;;;7.93;6.10;;;2.60;99.90;;;;;;10345196;28;20230;-74
2021/12/25 23:30:45;;;;;;;7.73;6.03;;;2.60;99.90;;;;;;10358229;28;20237;-75
2021/12/25 23:35:45;;;;;;;8.07;6.47;;;2.60;99.90;;;;;;10348769;28;20268;-75
2021/12/25 23:40:47;;;;;;;7.80;6.43;;;2.60;99.90;;;;;;10351969;28;20248;-75
2021/12/25 23:45:48;;;;;;;8.07;6.90;;;2.60;99.90;;;;;;10357339;28;20229;-75
2021/12/25 23:50:49;;;;;;;10.03;6.67;;;2.50;99.90;;;;;;10351458;28;20224;-75
2021/12/25 23:55:51;;;;;;;7.20;6.03;;;2.50;99.90;;;;;;10344333;28;20287;-75
